Архив погоды в Тас-Ары

Метеограмма Тас-Ары
Понедельник, 24 Июня
Время местн. Темп Ветер Видим Явления Облачность нижн/средн/верх Атм. давл. Влжн Точка росы ВНГО R Сост. почвы Tg s
Напр Скр Прв ур.ст ур.м изм
21:00 +11.3° С-В 2 - 4 км дымка ясно 758 759 -0.5 83% +8.5° более 2.5 км 0 - - -
18:00 +12.1° В 4 - 20 км - ясно 758 760 -0.3 78% +8.3° более 2.5 км - - - -
15:00 +14.4° С 2 - 20 км небо без изменений {туман} ясно 759 760 -0.5 68% +8.5° более 2.5 км - - - -
12:00 +10.3° С 4 - 1 км дымка {туман} облачно 759 761 0 94% +9.3° 600 м - - - -
09:00 +7.1° С,С-З 7 10 200 м туман, небо видно облачно 759 761 +0.2 95% +6.4° 600 м 0 Влажная (без луж) +7° -
06:00 +6.3° С,С-З 7 10 200 м туман, небо видно облачно 759 760 +0.4 95% +5.6° 600 м - - - -
03:00 +6.4° С 8 11 200 м туман, небо видно облачно 759 760 +0.2 94% +5.5° 600 м - - - -
00:00 +7.8° С,С-З 8 11 4 км дымка облачно 758 760 -0.1 91% +6.4° 600 м - - - -
Воскресенье, 23 Июня
Время местн. Темп Ветер Видим Явления Облачность нижн/средн/верх Атм. давл. Влжн Точка росы ВНГО R Сост. почвы Tg s
Напр Скр Прв ур.ст ур.м изм
21:00 +7.7° С 5 - 20 км - облачно 758 760 0 88% +5.9° 600 м 0 - - -
18:00 +9.3° С,С-З 7 - 20 км - облачно 758 760 +0.2 87% +7.3° 600 м - - - -
15:00 +8.3° С-З 7 10 20 км - облачно 758 760 -0.3 87% +6.3° 600 м - - - -
12:00 +7.2° С-З 7 12 20 км - облачно 758 760 +0.2 90% +5.6° 600 м - - - -
09:00 +6.4° С-З 8 13 20 км - облачно 758 760 -0.7 94% +5.5° 600 м 0 Влажная (без луж) +7° -
06:00 +6.1° С 9 14 20 км - облачно 759 760 +1.7 93% +5° 600 м - - - -
03:00 +7.8° С-З 8 15 4 км дымка облачно 757 759 +1.5 90% +6.3° 600 м - - - -
00:00 +9.2° С-З 11 14 4 км дымка облачно 756 757 +1.2 93% +8.2° 600 м - - - -
Суббота, 22 Июня
Время местн. Темп Ветер Видим Явления Облачность нижн/средн/верх Атм. давл. Влжн Точка росы ВНГО R Сост. почвы Tg s
Напр Скр Прв ур.ст ур.м изм
21:00 +9.4° С 7 - 4 км дымка облачно с прояснениями 754 756 -0.6 83% +6.6° более 2.5 км 0 - - -
18:00 +12.7° В 3 - 4 км дымка ясно 755 756 -0.2 74% +8.1° более 2.5 км - - - -
15:00 +13.4° В 3 - 4 км дымка ясно 755 757 -0.2 75% +9.1° более 2.5 км - - - -
12:00 +13.8° Ю,Ю-В 2 - 20 км - переменная облачность 755 757 0 68% +8° более 2.5 км - - - -
09:00 +11.4° Ю-В 4 - 20 км - переменная облачность 755 757 +0.1 75% +7.2° более 2.5 км 0 Влажная (без луж) +7° -
06:00 +10.1° Ю-В 4 - 20 км - переменная облачность 755 757 -0.2 83% +7.4° более 2.5 км - - - -
03:00 +10.2° В,Ю-В 4 - 20 км - облачно 756 757 -1.1 83% +7.5° более 2.5 км - - - -
00:00 +8.4° Ю 2 14 20 км - облачно 757 758 +0.1 84% +5.8° более 2.5 км - - - -
Пятница, 21 Июня
Время местн. Темп Ветер Видим Явления Облачность нижн/средн/верх Атм. давл. Влжн Точка росы ВНГО R Сост. почвы Tg s
Напр Скр Прв ур.ст ур.м изм
21:00 +10.9° В,Ю-В 11 14 20 км - облачно 757 758 -0.7 77% +7.1° более 2.5 км 0 - - -
18:00 +12.2° В,Ю-В 9 13 20 км морось или снежные зерна {метель} переменная облачность 757 759 -0.7 74% +7.7° более 2.5 км - - - -